sensor_id;sensor_type;location;lat;lon;timestamp;temperature;humidity
48734;DHT22;34530;52.084;5.146;2023-01-15T00:01:04;15.20;72.40
48734;DHT22;34530;52.084;5.146;2023-01-15T00:03:30;15.20;72.40
48734;DHT22;34530;52.084;5.146;2023-01-15T00:06:00;15.20;72.40
48734;DHT22;34530;52.084;5.146;2023-01-15T00:08:26;15.20;72.30
48734;DHT22;34530;52.084;5.146;2023-01-15T00:10:52;15.20;72.30
48734;DHT22;34530;52.084;5.146;2023-01-15T00:13:17;15.20;72.40
48734;DHT22;34530;52.084;5.146;2023-01-15T00:15:43;15.20;72.20
48734;DHT22;34530;52.084;5.146;2023-01-15T00:18:09;15.20;72.20
48734;DHT22;34530;52.084;5.146;2023-01-15T00:20:35;15.20;72.20
48734;DHT22;34530;52.084;5.146;2023-01-15T00:23:00;15.20;72.10
48734;DHT22;34530;52.084;5.146;2023-01-15T00:25:26;15.20;72.10
48734;DHT22;34530;52.084;5.146;2023-01-15T00:28:12;15.20;72.10
48734;DHT22;34530;52.084;5.146;2023-01-15T00:30:40;15.20;72.00
48734;DHT22;34530;52.084;5.146;2023-01-15T00:33:07;15.20;72.10
48734;DHT22;34530;52.084;5.146;2023-01-15T00:35:32;15.20;72.00
48734;DHT22;34530;52.084;5.146;2023-01-15T00:37:58;15.20;72.00
48734;DHT22;34530;52.084;5.146;2023-01-15T00:40:24;15.20;71.90
48734;DHT22;34530;52.084;5.146;2023-01-15T00:42:50;15.20;71.90
48734;DHT22;34530;52.084;5.146;2023-01-15T00:45:16;15.20;71.90
48734;DHT22;34530;52.084;5.146;2023-01-15T00:47:43;15.20;71.80
48734;DHT22;34530;52.084;5.146;2023-01-15T00:50:12;15.10;71.70
48734;DHT22;34530;52.084;5.146;2023-01-15T00:52:38;15.20;71.70
48734;DHT22;34530;52.084;5.146;2023-01-15T00:55:05;15.10;71.70
48734;DHT22;34530;52.084;5.146;2023-01-15T00:57:31;15.10;71.70
48734;DHT22;34530;52.084;5.146;2023-01-15T00:59:57;15.10;71.70
48734;DHT22;34530;52.084;5.146;2023-01-15T01:02:23;15.20;71.70
48734;DHT22;34530;52.084;5.146;2023-01-15T01:04:48;15.10;71.60
48734;DHT22;34530;52.084;5.146;2023-01-15T01:07:14;15.10;71.60
48734;DHT22;34530;52.084;5.146;2023-01-15T01:09:40;15.10;71.60
48734;DHT22;34530;52.084;5.146;2023-01-15T01:12:07;15.10;72.00
48734;DHT22;34530;52.084;5.146;2023-01-15T01:14:32;15.10;71.60
48734;DHT22;34530;52.084;5.146;2023-01-15T01:16:58;15.10;71.50
48734;DHT22;34530;52.084;5.146;2023-01-15T01:19:25;15.10;71.50
48734;DHT22;34530;52.084;5.146;2023-01-15T01:21:51;15.10;71.50
48734;DHT22;34530;52.084;5.146;2023-01-15T01:24:22;15.10;71.50
48734;DHT22;34530;52.084;5.146;2023-01-15T01:26:49;15.10;71.40
48734;DHT22;34530;52.084;5.146;2023-01-15T01:29:17;15.10;71.40
48734;DHT22;34530;52.084;5.146;2023-01-15T01:31:43;15.10;71.40
48734;DHT22;34530;52.084;5.146;2023-01-15T01:34:10;15.10;71.40
48734;DHT22;34530;52.084;5.146;2023-01-15T01:36:39;15.10;71.40
48734;DHT22;34530;52.084;5.146;2023-01-15T01:39:06;15.10;71.30
48734;DHT22;34530;52.084;5.146;2023-01-15T01:41:33;15.10;72.10
48734;DHT22;34530;52.084;5.146;2023-01-15T01:44:04;15.10;71.30
48734;DHT22;34530;52.084;5.146;2023-01-15T01:46:32;15.10;71.30
48734;DHT22;34530;52.084;5.146;2023-01-15T01:49:03;15.10;71.30
48734;DHT22;34530;52.084;5.146;2023-01-15T01:51:35;15.10;71.30
48734;DHT22;34530;52.084;5.146;2023-01-15T01:54:03;15.10;71.30
48734;DHT22;34530;52.084;5.146;2023-01-15T01:56:29;15.10;71.30
48734;DHT22;34530;52.084;5.146;2023-01-15T01:58:57;15.10;71.20
48734;DHT22;34530;52.084;5.146;2023-01-15T02:01:23;15.10;71.20
48734;DHT22;34530;52.084;5.146;2023-01-15T02:03:49;15.10;71.20
48734;DHT22;34530;52.084;5.146;2023-01-15T02:06:15;15.10;71.20
48734;DHT22;34530;52.084;5.146;2023-01-15T02:08:41;15.10;71.20
48734;DHT22;34530;52.084;5.146;2023-01-15T02:11:14;15.10;71.10
48734;DHT22;34530;52.084;5.146;2023-01-15T02:13:45;15.10;71.90
48734;DHT22;34530;52.084;5.146;2023-01-15T02:16:41;15.10;71.10
48734;DHT22;34530;52.084;5.146;2023-01-15T02:26:59;15.10;71.00
48734;DHT22;34530;52.084;5.146;2023-01-15T02:32:15;15.00;70.90
48734;DHT22;34530;52.084;5.146;2023-01-15T02:34:52;15.10;71.00
48734;DHT22;34530;52.084;5.146;2023-01-15T02:37:25;15.10;70.90
48734;DHT22;34530;52.084;5.146;2023-01-15T02:39:54;15.10;70.90
48734;DHT22;34530;52.084;5.146;2023-01-15T02:42:22;15.10;70.90
48734;DHT22;34530;52.084;5.146;2023-01-15T02:44:51;15.10;70.90
48734;DHT22;34530;52.084;5.146;2023-01-15T02:47:23;15.10;70.80
48734;DHT22;34530;52.084;5.146;2023-01-15T02:49:53;15.10;70.80
48734;DHT22;34530;52.084;5.146;2023-01-15T02:52:36;15.10;70.80
48734;DHT22;34530;52.084;5.146;2023-01-15T02:55:10;15.10;70.70
48734;DHT22;34530;52.084;5.146;2023-01-15T02:57:38;15.10;70.70
48734;DHT22;34530;52.084;5.146;2023-01-15T03:00:09;15.10;70.70
48734;DHT22;34530;52.084;5.146;2023-01-15T03:02:45;15.10;70.60
48734;DHT22;34530;52.084;5.146;2023-01-15T03:05:20;15.10;70.60
48734;DHT22;34530;52.084;5.146;2023-01-15T03:07:49;15.00;70.50
48734;DHT22;34530;52.084;5.146;2023-01-15T03:10:17;15.00;70.50
48734;DHT22;34530;52.084;5.146;2023-01-15T03:12:54;15.00;70.50
48734;DHT22;34530;52.084;5.146;2023-01-15T03:15:50;15.00;70.40
48734;DHT22;34530;52.084;5.146;2023-01-15T03:18:40;15.00;70.40
48734;DHT22;34530;52.084;5.146;2023-01-15T03:21:10;15.00;70.40
48734;DHT22;34530;52.084;5.146;2023-01-15T03:23:38;15.00;70.40
48734;DHT22;34530;52.084;5.146;2023-01-15T03:26:09;15.00;70.30
48734;DHT22;34530;52.084;5.146;2023-01-15T03:28:36;15.00;70.30
48734;DHT22;34530;52.084;5.146;2023-01-15T03:31:02;15.00;70.20
48734;DHT22;34530;52.084;5.146;2023-01-15T03:33:28;15.00;70.30
48734;DHT22;34530;52.084;5.146;2023-01-15T03:35:57;15.00;70.20
48734;DHT22;34530;52.084;5.146;2023-01-15T03:38:34;15.00;70.20
48734;DHT22;34530;52.084;5.146;2023-01-15T03:46:45;15.00;70.10
48734;DHT22;34530;52.084;5.146;2023-01-15T03:52:30;15.00;70.10
48734;DHT22;34530;52.084;5.146;2023-01-15T03:57:47;15.00;70.10
48734;DHT22;34530;52.084;5.146;2023-01-15T04:00:20;15.00;70.10
48734;DHT22;34530;52.084;5.146;2023-01-15T04:02:47;15.00;70.00
48734;DHT22;34530;52.084;5.146;2023-01-15T04:05:15;15.00;70.00
48734;DHT22;34530;52.084;5.146;2023-01-15T04:07:42;15.00;70.00
48734;DHT22;34530;52.084;5.146;2023-01-15T04:10:09;15.00;70.00
48734;DHT22;34530;52.084;5.146;2023-01-15T04:12:35;15.00;70.00
48734;DHT22;34530;52.084;5.146;2023-01-15T04:15:00;15.00;70.00
48734;DHT22;34530;52.084;5.146;2023-01-15T04:17:26;15.00;69.90
48734;DHT22;34530;52.084;5.146;2023-01-15T04:19:52;15.00;69.90
48734;DHT22;34530;52.084;5.146;2023-01-15T04:22:17;15.00;69.90
48734;DHT22;34530;52.084;5.146;2023-01-15T04:24:43;15.00;69.80
48734;DHT22;34530;52.084;5.146;2023-01-15T04:27:08;14.90;69.70
48734;DHT22;34530;52.084;5.146;2023-01-15T04:29:34;15.00;69.80
48734;DHT22;34530;52.084;5.146;2023-01-15T04:31:59;14.90;69.80
48734;DHT22;34530;52.084;5.146;2023-01-15T04:34:26;15.00;69.80
48734;DHT22;34530;52.084;5.146;2023-01-15T04:36:53;14.90;69.80
48734;DHT22;34530;52.084;5.146;2023-01-15T04:39:18;14.90;69.70
48734;DHT22;34530;52.084;5.146;2023-01-15T04:41:44;14.90;69.80
48734;DHT22;34530;52.084;5.146;2023-01-15T04:44:29;14.90;69.70
48734;DHT22;34530;52.084;5.146;2023-01-15T04:46:55;14.90;69.70
48734;DHT22;34530;52.084;5.146;2023-01-15T04:49:22;14.90;69.70
48734;DHT22;34530;52.084;5.146;2023-01-15T04:51:47;14.90;69.70
48734;DHT22;34530;52.084;5.146;2023-01-15T04:54:14;14.90;69.60
48734;DHT22;34530;52.084;5.146;2023-01-15T04:56:42;14.90;69.60
48734;DHT22;34530;52.084;5.146;2023-01-15T04:59:09;14.90;69.60
48734;DHT22;34530;52.084;5.146;2023-01-15T05:01:36;14.90;69.60
48734;DHT22;34530;52.084;5.146;2023-01-15T05:04:02;14.90;69.50
48734;DHT22;34530;52.084;5.146;2023-01-15T05:06:28;14.90;69.50
48734;DHT22;34530;52.084;5.146;2023-01-15T05:08:56;14.90;69.50
48734;DHT22;34530;52.084;5.146;2023-01-15T05:11:22;14.90;69.40
48734;DHT22;34530;52.084;5.146;2023-01-15T05:13:47;14.90;69.40
48734;DHT22;34530;52.084;5.146;2023-01-15T05:16:15;14.90;69.40
48734;DHT22;34530;52.084;5.146;2023-01-15T05:18:43;14.90;69.30
48734;DHT22;34530;52.084;5.146;2023-01-15T05:21:27;14.90;69.30
48734;DHT22;34530;52.084;5.146;2023-01-15T05:23:54;14.90;69.20
48734;DHT22;34530;52.084;5.146;2023-01-15T05:26:20;14.90;69.20
48734;DHT22;34530;52.084;5.146;2023-01-15T05:28:47;14.90;69.20
48734;DHT22;34530;52.084;5.146;2023-01-15T05:31:15;14.90;69.20
48734;DHT22;34530;52.084;5.146;2023-01-15T05:33:41;14.90;69.20
48734;DHT22;34530;52.084;5.146;2023-01-15T05:36:10;14.90;69.10
48734;DHT22;34530;52.084;5.146;2023-01-15T05:38:35;14.90;69.10
48734;DHT22;34530;52.084;5.146;2023-01-15T05:41:09;14.90;69.10
48734;DHT22;34530;52.084;5.146;2023-01-15T05:43:55;14.90;69.00
48734;DHT22;34530;52.084;5.146;2023-01-15T05:46:21;14.90;69.00
48734;DHT22;34530;52.084;5.146;2023-01-15T05:48:47;14.90;69.50
48734;DHT22;34530;52.084;5.146;2023-01-15T05:51:13;14.90;69.00
48734;DHT22;34530;52.084;5.146;2023-01-15T05:53:39;14.90;69.00
48734;DHT22;34530;52.084;5.146;2023-01-15T05:56:05;14.90;69.00
48734;DHT22;34530;52.084;5.146;2023-01-15T05:58:31;14.90;68.90
48734;DHT22;34530;52.084;5.146;2023-01-15T06:00:57;14.80;68.90
48734;DHT22;34530;52.084;5.146;2023-01-15T06:03:23;14.80;68.80
48734;DHT22;34530;52.084;5.146;2023-01-15T06:05:50;14.90;68.90
48734;DHT22;34530;52.084;5.146;2023-01-15T06:08:16;14.80;68.80
48734;DHT22;34530;52.084;5.146;2023-01-15T06:10:44;14.80;68.80
48734;DHT22;34530;52.084;5.146;2023-01-15T06:13:10;14.80;68.80
48734;DHT22;34530;52.084;5.146;2023-01-15T06:15:35;14.80;68.80
48734;DHT22;34530;52.084;5.146;2023-01-15T06:18:01;14.80;68.80
48734;DHT22;34530;52.084;5.146;2023-01-15T06:20:26;14.80;68.80
48734;DHT22;34530;52.084;5.146;2023-01-15T06:22:52;14.80;68.80
48734;DHT22;34530;52.084;5.146;2023-01-15T06:25:18;14.80;68.70
48734;DHT22;34530;52.084;5.146;2023-01-15T06:27:43;14.80;68.70
48734;DHT22;34530;52.084;5.146;2023-01-15T06:30:10;14.80;68.60
48734;DHT22;34530;52.084;5.146;2023-01-15T06:32:36;14.80;68.60
48734;DHT22;34530;52.084;5.146;2023-01-15T06:35:02;14.80;68.50
48734;DHT22;34530;52.084;5.146;2023-01-15T06:37:27;14.80;68.40
48734;DHT22;34530;52.084;5.146;2023-01-15T06:39:53;14.80;68.30
48734;DHT22;34530;52.084;5.146;2023-01-15T06:42:19;14.80;68.30
48734;DHT22;34530;52.084;5.146;2023-01-15T06:45:03;14.80;68.20
48734;DHT22;34530;52.084;5.146;2023-01-15T06:47:47;14.80;68.20
48734;DHT22;34530;52.084;5.146;2023-01-15T06:50:13;14.80;68.20
48734;DHT22;34530;52.084;5.146;2023-01-15T06:52:40;14.80;68.20
48734;DHT22;34530;52.084;5.146;2023-01-15T06:55:06;14.80;68.20
48734;DHT22;34530;52.084;5.146;2023-01-15T06:57:32;14.80;68.10
48734;DHT22;34530;52.084;5.146;2023-01-15T06:59:57;14.80;68.10
48734;DHT22;34530;52.084;5.146;2023-01-15T07:02:23;14.80;68.10
48734;DHT22;34530;52.084;5.146;2023-01-15T07:04:49;14.80;68.10
48734;DHT22;34530;52.084;5.146;2023-01-15T07:07:16;14.80;68.10
48734;DHT22;34530;52.084;5.146;2023-01-15T07:09:42;14.80;68.00
48734;DHT22;34530;52.084;5.146;2023-01-15T07:12:07;14.80;68.00
48734;DHT22;34530;52.084;5.146;2023-01-15T07:14:33;14.80;68.00
48734;DHT22;34530;52.084;5.146;2023-01-15T07:16:59;14.80;68.00
48734;DHT22;34530;52.084;5.146;2023-01-15T07:19:24;14.80;68.00
48734;DHT22;34530;52.084;5.146;2023-01-15T07:21:51;14.80;68.00
48734;DHT22;34530;52.084;5.146;2023-01-15T07:24:17;14.80;68.00
48734;DHT22;34530;52.084;5.146;2023-01-15T07:26:43;14.80;67.90
48734;DHT22;34530;52.084;5.146;2023-01-15T07:29:10;14.80;67.90
48734;DHT22;34530;52.084;5.146;2023-01-15T07:31:36;14.80;67.80
48734;DHT22;34530;52.084;5.146;2023-01-15T07:34:02;14.80;67.80
48734;DHT22;34530;52.084;5.146;2023-01-15T07:36:28;14.70;67.80
48734;DHT22;34530;52.084;5.146;2023-01-15T07:38:54;14.70;67.70
48734;DHT22;34530;52.084;5.146;2023-01-15T07:41:19;14.70;67.70
48734;DHT22;34530;52.084;5.146;2023-01-15T07:44:03;14.70;67.70
48734;DHT22;34530;52.084;5.146;2023-01-15T07:46:47;14.80;67.70
48734;DHT22;34530;52.084;5.146;2023-01-15T07:49:32;14.70;68.40
48734;DHT22;34530;52.084;5.146;2023-01-15T07:52:18;14.70;67.60
48734;DHT22;34530;52.084;5.146;2023-01-15T07:54:44;14.70;67.60
48734;DHT22;34530;52.084;5.146;2023-01-15T07:57:11;14.70;67.70
48734;DHT22;34530;52.084;5.146;2023-01-15T07:59:37;14.70;67.70
48734;DHT22;34530;52.084;5.146;2023-01-15T08:02:03;14.70;67.60
48734;DHT22;34530;52.084;5.146;2023-01-15T08:04:29;14.70;67.70
48734;DHT22;34530;52.084;5.146;2023-01-15T08:06:54;14.70;67.70
48734;DHT22;34530;52.084;5.146;2023-01-15T08:09:20;14.70;67.70
48734;DHT22;34530;52.084;5.146;2023-01-15T08:11:45;14.70;67.60
48734;DHT22;34530;52.084;5.146;2023-01-15T08:14:29;14.70;67.60
48734;DHT22;34530;52.084;5.146;2023-01-15T08:17:13;14.70;67.60
48734;DHT22;34530;52.084;5.146;2023-01-15T08:19:39;14.70;67.50
48734;DHT22;34530;52.084;5.146;2023-01-15T08:22:04;14.70;67.40
48734;DHT22;34530;52.084;5.146;2023-01-15T08:24:30;14.70;67.40
48734;DHT22;34530;52.084;5.146;2023-01-15T08:26:55;14.70;67.30
48734;DHT22;34530;52.084;5.146;2023-01-15T08:29:21;14.70;67.30
48734;DHT22;34530;52.084;5.146;2023-01-15T08:31:47;14.70;67.30
48734;DHT22;34530;52.084;5.146;2023-01-15T08:34:13;14.70;67.30
48734;DHT22;34530;52.084;5.146;2023-01-15T08:36:39;14.70;68.00
48734;DHT22;34530;52.084;5.146;2023-01-15T08:39:04;14.80;67.30
48734;DHT22;34530;52.084;5.146;2023-01-15T08:41:30;14.80;67.20
48734;DHT22;34530;52.084;5.146;2023-01-15T08:43:56;14.80;67.20
48734;DHT22;34530;52.084;5.146;2023-01-15T08:46:22;14.80;67.90
48734;DHT22;34530;52.084;5.146;2023-01-15T08:48:47;14.80;67.10
48734;DHT22;34530;52.084;5.146;2023-01-15T08:51:14;14.80;67.00
48734;DHT22;34530;52.084;5.146;2023-01-15T08:53:40;14.80;67.00
48734;DHT22;34530;52.084;5.146;2023-01-15T08:56:16;14.80;67.00
48734;DHT22;34530;52.084;5.146;2023-01-15T08:58:43;14.80;66.90
48734;DHT22;34530;52.084;5.146;2023-01-15T09:01:10;14.80;66.90
48734;DHT22;34530;52.084;5.146;2023-01-15T09:03:40;14.80;66.90
48734;DHT22;34530;52.084;5.146;2023-01-15T09:06:06;14.80;67.60
48734;DHT22;34530;52.084;5.146;2023-01-15T09:08:31;14.80;66.80
48734;DHT22;34530;52.084;5.146;2023-01-15T09:10:58;14.80;66.80
48734;DHT22;34530;52.084;5.146;2023-01-15T09:13:25;14.90;66.90
48734;DHT22;34530;52.084;5.146;2023-01-15T09:15:50;14.80;66.70
48734;DHT22;34530;52.084;5.146;2023-01-15T09:18:16;14.80;66.70
48734;DHT22;34530;52.084;5.146;2023-01-15T09:20:46;14.80;66.70
48734;DHT22;34530;52.084;5.146;2023-01-15T09:23:12;14.80;66.70
48734;DHT22;34530;52.084;5.146;2023-01-15T09:25:38;14.80;66.70
48734;DHT22;34530;52.084;5.146;2023-01-15T09:28:04;14.80;66.70
48734;DHT22;34530;52.084;5.146;2023-01-15T09:30:29;14.80;66.60
48734;DHT22;34530;52.084;5.146;2023-01-15T09:32:55;14.80;66.60
48734;DHT22;34530;52.084;5.146;2023-01-15T09:35:21;14.80;66.50
48734;DHT22;34530;52.084;5.146;2023-01-15T09:37:53;14.80;66.50
48734;DHT22;34530;52.084;5.146;2023-01-15T09:43:28;14.80;66.50
48734;DHT22;34530;52.084;5.146;2023-01-15T09:46:15;14.80;66.50
48734;DHT22;34530;52.084;5.146;2023-01-15T09:49:13;14.80;66.50
48734;DHT22;34530;52.084;5.146;2023-01-15T09:57:45;14.70;66.40
48734;DHT22;34530;52.084;5.146;2023-01-15T10:00:18;14.70;66.50
48734;DHT22;34530;52.084;5.146;2023-01-15T10:02:49;14.70;66.40
48734;DHT22;34530;52.084;5.146;2023-01-15T10:05:27;14.70;67.10
48734;DHT22;34530;52.084;5.146;2023-01-15T10:08:00;14.70;66.40
48734;DHT22;34530;52.084;5.146;2023-01-15T10:10:40;14.80;66.30
48734;DHT22;34530;52.084;5.146;2023-01-15T10:13:22;14.80;66.20
48734;DHT22;34530;52.084;5.146;2023-01-15T10:15:51;14.80;66.20
48734;DHT22;34530;52.084;5.146;2023-01-15T10:18:20;14.80;66.30
48734;DHT22;34530;52.084;5.146;2023-01-15T10:24:11;14.80;66.40
48734;DHT22;34530;52.084;5.146;2023-01-15T10:26:56;14.80;66.40
48734;DHT22;34530;52.084;5.146;2023-01-15T10:29:45;14.80;66.40
48734;DHT22;34530;52.084;5.146;2023-01-15T10:40:32;14.90;66.40
48734;DHT22;34530;52.084;5.146;2023-01-15T10:43:29;14.90;66.30
48734;DHT22;34530;52.084;5.146;2023-01-15T10:45:58;14.90;66.20
48734;DHT22;34530;52.084;5.146;2023-01-15T10:48:37;14.90;66.10
48734;DHT22;34530;52.084;5.146;2023-01-15T10:51:13;14.90;66.00
48734;DHT22;34530;52.084;5.146;2023-01-15T10:53:48;14.90;66.00
48734;DHT22;34530;52.084;5.146;2023-01-15T10:56:24;14.90;65.90
48734;DHT22;34530;52.084;5.146;2023-01-15T10:59:57;14.90;66.00
48734;DHT22;34530;52.084;5.146;2023-01-15T11:01:52;14.90;66.00
48734;DHT22;34530;52.084;5.146;2023-01-15T11:04:19;14.90;65.90
48734;DHT22;34530;52.084;5.146;2023-01-15T11:06:44;14.90;65.90
48734;DHT22;34530;52.084;5.146;2023-01-15T11:09:20;14.90;65.90
48734;DHT22;34530;52.084;5.146;2023-01-15T11:11:52;14.90;65.80
48734;DHT22;34530;52.084;5.146;2023-01-15T11:14:43;14.80;65.80
48734;DHT22;34530;52.084;5.146;2023-01-15T11:17:40;14.80;65.70
48734;DHT22;34530;52.084;5.146;2023-01-15T11:20:32;14.80;65.60
48734;DHT22;34530;52.084;5.146;2023-01-15T11:23:11;14.80;65.70
48734;DHT22;34530;52.084;5.146;2023-01-15T11:25:39;14.80;65.60
48734;DHT22;34530;52.084;5.146;2023-01-15T11:28:11;14.80;65.60
48734;DHT22;34530;52.084;5.146;2023-01-15T11:30:40;14.80;65.60
48734;DHT22;34530;52.084;5.146;2023-01-15T11:33:24;14.80;65.50
48734;DHT22;34530;52.084;5.146;2023-01-15T11:35:51;14.80;65.40
48734;DHT22;34530;52.084;5.146;2023-01-15T11:38:22;14.80;65.40
48734;DHT22;34530;52.084;5.146;2023-01-15T11:41:00;14.80;65.40
48734;DHT22;34530;52.084;5.146;2023-01-15T11:43:28;14.80;65.20
48734;DHT22;34530;52.084;5.146;2023-01-15T11:46:29;14.80;65.20
48734;DHT22;34530;52.084;5.146;2023-01-15T11:49:19;14.80;65.20
48734;DHT22;34530;52.084;5.146;2023-01-15T11:52:07;14.80;65.20
48734;DHT22;34530;52.084;5.146;2023-01-15T11:54:38;14.80;65.20
48734;DHT22;34530;52.084;5.146;2023-01-15T11:57:04;14.80;65.10
48734;DHT22;34530;52.084;5.146;2023-01-15T11:59:31;14.80;65.10
48734;DHT22;34530;52.084;5.146;2023-01-15T12:02:17;14.80;65.10
48734;DHT22;34530;52.084;5.146;2023-01-15T12:04:58;14.80;65.00
48734;DHT22;34530;52.084;5.146;2023-01-15T12:07:25;14.80;65.00
48734;DHT22;34530;52.084;5.146;2023-01-15T12:10:24;14.80;65.00
48734;DHT22;34530;52.084;5.146;2023-01-15T12:16:09;14.80;65.00
48734;DHT22;34530;52.084;5.146;2023-01-15T12:18:57;14.80;65.00
48734;DHT22;34530;52.084;5.146;2023-01-15T12:24:31;14.80;65.00
48734;DHT22;34530;52.084;5.146;2023-01-15T12:32:19;14.80;65.00
48734;DHT22;34530;52.084;5.146;2023-01-15T12:34:49;14.80;65.00
48734;DHT22;34530;52.084;5.146;2023-01-15T12:37:22;14.80;65.00
48734;DHT22;34530;52.084;5.146;2023-01-15T12:42:31;14.90;65.00
48734;DHT22;34530;52.084;5.146;2023-01-15T12:45:39;14.80;65.80
48734;DHT22;34530;52.084;5.146;2023-01-15T12:48:18;14.80;65.00
48734;DHT22;34530;52.084;5.146;2023-01-15T12:50:51;14.80;65.00
48734;DHT22;34530;52.084;5.146;2023-01-15T12:53:39;14.80;65.00
48734;DHT22;34530;52.084;5.146;2023-01-15T12:56:29;14.80;65.00
48734;DHT22;34530;52.084;5.146;2023-01-15T12:59:17;14.80;65.00
48734;DHT22;34530;52.084;5.146;2023-01-15T13:02:01;14.90;65.10
48734;DHT22;34530;52.084;5.146;2023-01-15T13:04:44;14.80;65.00
48734;DHT22;34530;52.084;5.146;2023-01-15T13:07:21;14.80;65.00
48734;DHT22;34530;52.084;5.146;2023-01-15T13:09:59;14.90;65.10
48734;DHT22;34530;52.084;5.146;2023-01-15T13:12:26;14.80;65.00
48734;DHT22;34530;52.084;5.146;2023-01-15T13:14:52;14.90;65.10
48734;DHT22;34530;52.084;5.146;2023-01-15T13:20:03;14.90;65.10
48734;DHT22;34530;52.084;5.146;2023-01-15T13:22:31;14.90;65.20
48734;DHT22;34530;52.084;5.146;2023-01-15T13:38:44;14.90;65.10
48734;DHT22;34530;52.084;5.146;2023-01-15T13:41:17;14.90;65.20
48734;DHT22;34530;52.084;5.146;2023-01-15T13:44:03;14.90;65.20
48734;DHT22;34530;52.084;5.146;2023-01-15T13:46:29;14.90;65.20
48734;DHT22;34530;52.084;5.146;2023-01-15T13:48:58;14.90;65.20
48734;DHT22;34530;52.084;5.146;2023-01-15T13:51:29;14.90;65.20
48734;DHT22;34530;52.084;5.146;2023-01-15T13:53:58;14.90;65.10
48734;DHT22;34530;52.084;5.146;2023-01-15T13:56:30;14.90;65.10
48734;DHT22;34530;52.084;5.146;2023-01-15T13:59:00;14.90;65.20
48734;DHT22;34530;52.084;5.146;2023-01-15T14:06:51;14.90;65.20
48734;DHT22;34530;52.084;5.146;2023-01-15T14:23:14;14.90;65.30
48734;DHT22;34530;52.084;5.146;2023-01-15T14:28:53;14.90;65.30
48734;DHT22;34530;52.084;5.146;2023-01-15T14:31:37;14.90;65.30
48734;DHT22;34530;52.084;5.146;2023-01-15T14:36:59;14.90;65.30
48734;DHT22;34530;52.084;5.146;2023-01-15T14:39:43;14.90;65.40
48734;DHT22;34530;52.084;5.146;2023-01-15T14:45:24;14.90;65.40
48734;DHT22;34530;52.084;5.146;2023-01-15T14:47:56;14.90;65.40
48734;DHT22;34530;52.084;5.146;2023-01-15T14:50:39;14.90;65.50
48734;DHT22;34530;52.084;5.146;2023-01-15T14:56:01;14.90;65.50
48734;DHT22;34530;52.084;5.146;2023-01-15T14:58:42;14.90;65.50
48734;DHT22;34530;52.084;5.146;2023-01-15T15:01:35;14.90;65.50
48734;DHT22;34530;52.084;5.146;2023-01-15T15:04:07;14.90;65.50
48734;DHT22;34530;52.084;5.146;2023-01-15T15:06:51;14.90;65.60
48734;DHT22;34530;52.084;5.146;2023-01-15T15:15:09;14.90;65.60
48734;DHT22;34530;52.084;5.146;2023-01-15T15:17:42;14.90;65.60
48734;DHT22;34530;52.084;5.146;2023-01-15T15:20:23;14.90;65.60
48734;DHT22;34530;52.084;5.146;2023-01-15T15:22:55;14.90;65.60
48734;DHT22;34530;52.084;5.146;2023-01-15T15:25:24;15.00;65.70
48734;DHT22;34530;52.084;5.146;2023-01-15T15:28:05;14.90;65.60
48734;DHT22;34530;52.084;5.146;2023-01-15T15:30:33;15.00;65.60
48734;DHT22;34530;52.084;5.146;2023-01-15T15:33:02;14.90;65.60
48734;DHT22;34530;52.084;5.146;2023-01-15T15:35:30;15.00;65.70
48734;DHT22;34530;52.084;5.146;2023-01-15T15:38:01;15.00;65.70
48734;DHT22;34530;52.084;5.146;2023-01-15T15:40:32;15.00;65.70
48734;DHT22;34530;52.084;5.146;2023-01-15T15:43:14;15.00;65.70
48734;DHT22;34530;52.084;5.146;2023-01-15T15:45:59;15.00;65.70
48734;DHT22;34530;52.084;5.146;2023-01-15T15:48:45;15.00;65.70
48734;DHT22;34530;52.084;5.146;2023-01-15T15:53:49;15.00;65.70
48734;DHT22;34530;52.084;5.146;2023-01-15T15:56:15;15.00;65.70
48734;DHT22;34530;52.084;5.146;2023-01-15T15:58:41;15.00;65.70
48734;DHT22;34530;52.084;5.146;2023-01-15T16:01:11;15.00;65.70
48734;DHT22;34530;52.084;5.146;2023-01-15T16:03:45;15.00;65.70
48734;DHT22;34530;52.084;5.146;2023-01-15T16:06:22;15.00;65.70
48734;DHT22;34530;52.084;5.146;2023-01-15T16:08:56;15.00;65.70
48734;DHT22;34530;52.084;5.146;2023-01-15T16:11:30;15.00;65.70
48734;DHT22;34530;52.084;5.146;2023-01-15T16:13:57;15.00;65.70
48734;DHT22;34530;52.084;5.146;2023-01-15T16:16:26;15.00;65.70
48734;DHT22;34530;52.084;5.146;2023-01-15T16:18:54;15.00;65.70
48734;DHT22;34530;52.084;5.146;2023-01-15T16:21:35;15.00;65.70
48734;DHT22;34530;52.084;5.146;2023-01-15T16:24:06;15.00;65.60
48734;DHT22;34530;52.084;5.146;2023-01-15T16:26:33;15.00;65.70
48734;DHT22;34530;52.084;5.146;2023-01-15T16:29:05;15.00;65.70
48734;DHT22;34530;52.084;5.146;2023-01-15T16:31:36;15.00;65.60
48734;DHT22;34530;52.084;5.146;2023-01-15T16:34:02;15.00;65.60
48734;DHT22;34530;52.084;5.146;2023-01-15T16:36:38;15.00;65.60
48734;DHT22;34530;52.084;5.146;2023-01-15T16:39:04;15.00;65.60
48734;DHT22;34530;52.084;5.146;2023-01-15T16:41:36;15.00;65.60
48734;DHT22;34530;52.084;5.146;2023-01-15T16:44:04;15.00;65.60
48734;DHT22;34530;52.084;5.146;2023-01-15T16:46:32;15.00;65.60
48734;DHT22;34530;52.084;5.146;2023-01-15T16:49:26;15.00;65.60
48734;DHT22;34530;52.084;5.146;2023-01-15T16:51:53;15.00;65.60
48734;DHT22;34530;52.084;5.146;2023-01-15T16:54:41;15.00;65.60
48734;DHT22;34530;52.084;5.146;2023-01-15T16:57:34;15.00;65.60
48734;DHT22;34530;52.084;5.146;2023-01-15T17:00:03;15.00;65.60
48734;DHT22;34530;52.084;5.146;2023-01-15T17:02:40;14.90;65.60
48734;DHT22;34530;52.084;5.146;2023-01-15T17:05:16;15.00;65.60
48734;DHT22;34530;52.084;5.146;2023-01-15T17:07:46;15.00;65.60
48734;DHT22;34530;52.084;5.146;2023-01-15T17:10:21;15.00;65.60
48734;DHT22;34530;52.084;5.146;2023-01-15T17:12:47;15.00;65.60
48734;DHT22;34530;52.084;5.146;2023-01-15T17:17:38;15.00;65.60
48734;DHT22;34530;52.084;5.146;2023-01-15T17:20:07;15.00;65.60
48734;DHT22;34530;52.084;5.146;2023-01-15T17:22:33;15.00;65.60
48734;DHT22;34530;52.084;5.146;2023-01-15T17:25:00;15.00;65.60
48734;DHT22;34530;52.084;5.146;2023-01-15T17:27:27;14.90;65.50
48734;DHT22;34530;52.084;5.146;2023-01-15T17:29:53;15.00;65.60
48734;DHT22;34530;52.084;5.146;2023-01-15T17:32:33;14.90;65.50
48734;DHT22;34530;52.084;5.146;2023-01-15T17:35:24;15.00;65.60
48734;DHT22;34530;52.084;5.146;2023-01-15T17:37:51;14.90;65.50
48734;DHT22;34530;52.084;5.146;2023-01-15T17:40:18;14.90;65.60
48734;DHT22;34530;52.084;5.146;2023-01-15T17:42:44;14.90;65.60
48734;DHT22;34530;52.084;5.146;2023-01-15T17:45:20;14.90;65.60
48734;DHT22;34530;52.084;5.146;2023-01-15T17:47:46;14.90;65.50
48734;DHT22;34530;52.084;5.146;2023-01-15T17:50:12;14.90;66.40